This is the latest recevied weather packets stored in our database for station/object WBKK. If no packets are shown the sender has not sent any weather packets the latest 10 day(s).
| Time | Temp. | Humidity | Pressure | Rain* | Wind** | Luminosity | Snow |
|---|---|---|---|---|---|---|---|
| 1777994541 | 26.11° C | 82% | 1010 hPa | - | - | - | - |
| 1777990332 | 26.67° C | 94% | 1008 hPa | - | - | - | - |
| 1777988460 | 26.67° C | 88% | 1008 hPa | - | - | - | - |
| 1777986756 | 26.67° C | 94% | 1008 hPa | - | - | - | - |
| 1777979529 | 27.78° C | 88% | 1007 hPa | - | - | - | - |
| 1777975932 | 30° C | 79% | 1006 hPa | - | - | - | - |
| 1777972351 | 30.56° C | 74% | 1005 hPa | - | - | - | - |
| 1777970461 | 30.56° C | 74% | 1005 hPa | - | - | - | - |
| 1777968728 | 30.56° C | 74% | 1005 hPa | - | - | - | - |
| 1777966860 | 31.67° C | 70% | 1005 hPa | - | - | - | - |
| 1777965125 | 31.67° C | 70% | 1006 hPa | - | - | - | - |
| 1777961531 | 31.67° C | 70% | 1006 hPa | - | - | - | - |
| 1777959659 | 31.67° C | 70% | 1007 hPa | - | - | - | - |
| 1777957951 | 30.56° C | 70% | 1007 hPa | - | - | - | - |
| 1777956060 | 30.56° C | 70% | 1008 hPa | - | - | - | - |
| 1777954327 | 30.56° C | 74% | 1008 hPa | - | - | - | - |
| 1777932726 | 23.89° C | 88% | 1008 hPa | - | - | - | - |
| 1777921954 | 23.89° C | 94% | 1007 hPa | - | - | - | - |
| 1777920083 | 23.89° C | 94% | 1007 hPa | - | - | - | - |
| 1777918331 | 23.89° C | 94% | 1007 hPa | - | - | - | - |
| 1777916463 | 23.89° C | 94% | 1007 hPa | - | - | - | - |
| 1777914727 | 23.89° C | 94% | 1008 hPa | - | - | - | - |
| 1777911127 | 25° C | 88% | 1008 hPa | - | - | - | - |
| 1777907551 | 25° C | 94% | 1009 hPa | - | - | - | - |
| 1777903929 | 25° C | 88% | 1009 hPa | - | - | - | - |
* Rain since midnight (hover to see other rain measurements)
** Current wind speed in m/s (hover to see current wind gust speed)